createdAt,value
2022-10-07T00:05:12.720Z,42.20
2022-10-07T00:07:42.311Z,40.00
2022-10-07T00:10:09.868Z,42.60
2022-10-07T00:12:48.998Z,40.00
2022-10-07T00:15:38.850Z,40.00
2022-10-07T00:18:25.576Z,43.60
2022-10-07T00:20:56.496Z,44.80
2022-10-07T00:23:40.794Z,39.80
2022-10-07T00:26:24.236Z,42.40
2022-10-07T00:29:02.059Z,43.40
2022-10-07T00:32:08.758Z,45.00
2022-10-07T00:34:44.346Z,40.40
2022-10-07T00:37:17.549Z,43.00
2022-10-07T00:39:58.779Z,49.80
2022-10-07T00:42:38.347Z,43.00
2022-10-07T00:45:19.260Z,39.00
2022-10-07T00:47:59.844Z,45.80
2022-10-07T00:50:30.440Z,40.00
2022-10-07T00:53:05.545Z,43.20
2022-10-07T00:55:57.320Z,44.20
2022-10-07T00:58:35.483Z,39.60
2022-10-07T01:01:22.324Z,42.00
2022-10-07T01:03:54.064Z,37.00
2022-10-07T01:06:29.120Z,42.40
2022-10-07T01:09:01.720Z,43.60
2022-10-07T01:11:54.787Z,40.00
2022-10-07T01:14:46.383Z,39.20
2022-10-07T01:17:39.785Z,37.00
2022-10-07T01:20:34.594Z,37.80
2022-10-07T01:23:21.899Z,42.00
2022-10-07T01:26:11.640Z,42.00
2022-10-07T01:28:53.872Z,40.00
2022-10-07T01:31:40.903Z,43.00
2022-10-07T01:34:19.463Z,42.00
2022-10-07T01:36:54.405Z,42.00
2022-10-07T01:39:38.361Z,37.00
2022-10-07T01:42:28.543Z,39.20
2022-10-07T01:45:12.289Z,40.80
2022-10-07T01:47:55.398Z,40.00
2022-10-07T01:50:39.726Z,39.00
2022-10-07T01:53:57.533Z,43.80
2022-10-07T01:57:01.447Z,40.80
2022-10-07T01:59:59.046Z,36.80
2022-10-07T02:03:26.929Z,46.60
2022-10-07T02:06:21.466Z,38.20
2022-10-07T02:09:31.085Z,37.40
2022-10-07T02:12:40.425Z,37.80
2022-10-07T02:15:39.796Z,43.20
2022-10-07T02:18:15.575Z,40.00
2022-10-07T02:20:58.401Z,37.80
2022-10-07T02:24:08.662Z,39.00
2022-10-07T02:26:44.057Z,40.40
2022-10-07T02:29:37.458Z,42.00
2022-10-07T02:32:23.454Z,37.00
2022-10-07T02:35:05.697Z,38.60
2022-10-07T02:37:48.489Z,40.80
2022-10-07T02:40:29.533Z,40.40
2022-10-07T02:43:28.841Z,40.00
2022-10-07T02:46:38.118Z,39.80
2022-10-07T02:49:15.692Z,47.20
2022-10-07T02:51:54.419Z,33.20
2022-10-07T02:54:29.920Z,39.20
2022-10-07T02:57:02.890Z,39.20
2022-10-07T02:59:41.750Z,40.80
2022-10-07T03:02:17.073Z,42.20
2022-10-07T03:05:02.390Z,38.20
2022-10-07T03:07:33.829Z,40.40
2022-10-07T03:10:10.410Z,36.20
2022-10-07T03:12:42.904Z,42.40
2022-10-07T03:15:18.592Z,36.40
2022-10-07T03:18:27.006Z,37.00
2022-10-07T03:21:18.101Z,43.00
2022-10-07T03:24:19.910Z,36.40
2022-10-07T03:26:53.103Z,42.00
2022-10-07T03:29:25.665Z,42.40
2022-10-07T03:31:57.892Z,37.40
2022-10-07T03:34:29.358Z,36.40
2022-10-07T03:37:07.704Z,45.40
2022-10-07T03:39:40.476Z,36.20
2022-10-07T03:42:10.963Z,42.40
2022-10-07T03:44:42.666Z,39.00
2022-10-07T03:47:34.223Z,39.80
2022-10-07T03:50:13.067Z,46.00
2022-10-07T03:52:52.126Z,36.60
2022-10-07T03:55:32.272Z,38.80
2022-10-07T03:58:04.997Z,36.00
2022-10-07T04:00:31.882Z,39.00
2022-10-07T04:03:12.594Z,43.20
2022-10-07T04:05:39.478Z,36.80
2022-10-07T04:08:33.039Z,42.20
2022-10-07T04:11:06.403Z,37.80
2022-10-07T04:13:37.727Z,39.60
2022-10-07T04:16:13.651Z,39.00
2022-10-07T04:18:46.843Z,36.80
2022-10-07T04:21:24.014Z,38.20
2022-10-07T04:24:06.603Z,42.20
2022-10-07T04:27:01.966Z,40.80
2022-10-07T04:29:39.280Z,40.80
2022-10-07T04:32:11.507Z,36.60
2022-10-07T04:34:56.332Z,39.40
2022-10-07T04:37:35.853Z,52.40
2022-10-07T04:40:30.241Z,44.20
2022-10-07T04:43:23.409Z,37.00
2022-10-07T04:45:56.882Z,40.80
2022-10-07T04:48:35.016Z,40.40
2022-10-07T04:51:28.504Z,39.40
2022-10-07T04:54:08.420Z,45.80
2022-10-07T04:56:37.505Z,42.00
2022-10-07T04:59:13.949Z,40.00
2022-10-07T05:01:52.312Z,36.80
2022-10-07T05:04:34.483Z,46.40
2022-10-07T05:07:08.764Z,40.00
2022-10-07T05:09:35.626Z,39.80
2022-10-07T05:12:16.874Z,47.40
2022-10-07T05:14:56.613Z,37.80
2022-10-07T05:17:33.332Z,39.00
2022-10-07T05:20:10.438Z,40.20
2022-10-07T05:26:18.377Z,37.40
2022-10-07T05:28:47.284Z,38.80
2022-10-07T05:31:24.422Z,48.40
2022-10-07T05:34:02.303Z,40.40
2022-10-07T05:36:36.943Z,39.60
2022-10-07T05:39:13.691Z,39.20
2022-10-07T05:41:45.582Z,36.00
2022-10-07T05:44:13.299Z,39.40
2022-10-07T05:46:43.402Z,36.00
2022-10-07T05:49:12.681Z,39.00
2022-10-07T06:24:24.073Z,39.00
2022-10-07T06:38:11.508Z,37.80
2022-10-07T06:41:49.358Z,38.40
2022-10-07T06:44:47.519Z,40.00
2022-10-07T06:54:16.440Z,40.00
2022-10-07T07:15:55.725Z,41.40
2022-10-07T07:18:22.800Z,48.60
2022-10-07T07:20:53.309Z,39.20
2022-10-07T07:23:22.509Z,40.00
2022-10-07T07:25:56.836Z,39.40
2022-10-07T07:28:33.729Z,40.40
2022-10-07T07:31:03.261Z,40.00
2022-10-07T07:33:31.764Z,40.40
2022-10-07T07:36:16.090Z,40.00
2022-10-07T07:38:59.387Z,39.20
2022-10-07T07:41:32.899Z,49.80
2022-10-07T07:44:02.036Z,40.40
2022-10-07T07:46:51.494Z,39.80
2022-10-07T07:49:21.210Z,44.20
2022-10-07T07:58:11.655Z,44.60
2022-10-07T08:03:54.696Z,45.00
2022-10-07T08:06:22.005Z,44.60
2022-10-07T08:08:55.687Z,41.20
2022-10-07T08:19:25.510Z,44.40
2022-10-07T08:21:55.936Z,45.40
2022-10-07T09:16:52.616Z,46.80
2022-10-07T09:19:50.169Z,46.40
2022-10-07T09:22:23.150Z,46.80
2022-10-07T09:24:58.962Z,48.00
2022-10-07T09:27:53.141Z,46.40
2022-10-07T09:30:28.902Z,49.00
2022-10-07T09:33:05.868Z,47.20
2022-10-07T10:09:52.156Z,48.40
2022-10-07T12:00:32.588Z,54.00
2022-10-07T12:04:27.624Z,52.00
2022-10-07T12:08:00.696Z,54.50
2022-10-07T12:11:10.828Z,56.75
2022-10-07T12:17:57.681Z,54.50
2022-10-07T14:03:48.400Z,55.00
2022-10-07T14:10:44.604Z,55.00
2022-10-07T19:01:04.263Z,45.50
2022-10-07T19:04:08.522Z,50.80
2022-10-07T19:07:05.577Z,50.20
2022-10-07T19:10:04.808Z,52.20
2022-10-07T19:13:16.062Z,50.60
2022-10-07T19:16:19.589Z,51.60
2022-10-07T19:19:23.737Z,54.00
2022-10-07T19:22:19.895Z,51.40
2022-10-07T19:25:24.242Z,54.00
2022-10-07T22:35:33.656Z,48.00
2022-10-07T22:38:12.136Z,48.60
2022-10-07T22:40:44.656Z,46.60
2022-10-07T22:43:22.049Z,49.00
2022-10-07T22:46:07.669Z,48.40
2022-10-07T22:48:59.919Z,56.20
2022-10-07T22:51:34.880Z,53.40
2022-10-07T22:54:25.454Z,51.40
2022-10-07T22:57:40.110Z,49.40
2022-10-07T23:00:15.661Z,49.00
2022-10-07T23:02:58.787Z,48.00
2022-10-07T23:06:01.153Z,49.00
2022-10-07T23:08:42.193Z,48.00
2022-10-07T23:11:30.834Z,48.00
2022-10-07T23:14:16.097Z,48.00
2022-10-07T23:17:00.793Z,47.40
2022-10-07T23:19:49.119Z,48.00
2022-10-07T23:22:45.773Z,51.60
2022-10-07T23:25:37.356Z,50.00
2022-10-07T23:28:21.398Z,46.80
2022-10-07T23:31:12.545Z,46.40
2022-10-07T23:34:05.587Z,48.00
2022-10-07T23:36:41.603Z,48.20
2022-10-07T23:39:27.584Z,46.40
2022-10-07T23:42:11.396Z,46.80
2022-10-07T23:45:01.871Z,46.00
2022-10-07T23:48:20.304Z,48.00
2022-10-07T23:51:16.044Z,47.60
2022-10-07T23:54:19.098Z,50.00
2022-10-07T23:57:16.936Z,48.00
